Madrid, Spain

4:05 AM CEST on September 15, 2014 (GMT +0200)
Madrid - Las Mercedes | Change Station
CLOSE
Current Station
Personal Weather Station
Location: Madrid, COMUNIDAD DE MADRID
Elevation: 2037 ft
Nearby Weather Stations

Elev 2037 ft 40.44 °N, 3.59 °W | Updated 5 minutes ago

Light Rain
Light Rain
62.6 °F
Feels Like 62.6 °F
N
7.6
Wind Variable Wind from WNW
Gusts 12.1 mph

Today
High -- | Low -- °F
--% Chance of Precip.
Yesterday
High -- | Low -- °F
Precip. -- in
7:54 AM 8:23 PM
Waning Gibbous, 60% visible
Pressure 30.01 in
Visibility 5.6 miles
Clouds Few 4500 ft
Scattered Clouds 6000 ft
Dew Point 57 °F
Humidity 82%
Rainfall 0.09 in
Snow Depth Not available.
UV 0 out of 12
Pollen Not available.
Air Quality Not available.
Flu Activity Not available.
METAR LEMD 150130Z 23013KT 9000 -RA FEW045 SCT060TCU 18/14 Q1016 TEMPO SHRA

More Conditions Fewer Conditions

Pressure 30.01 in
Visibility 5.6 miles
Clouds Few 4500 ft
Scattered Clouds 6000 ft
Dew Point 57 °F
Humidity 82%
Rainfall 0.09 in
Snow Depth Not available.
UV 0 out of 12
Pollen Not available.
Air Quality Not available.
Flu Activity Not available.
METAR LEMD 150130Z 23013KT 9000 -RA FEW045 SCT060TCU 18/14 Q1016 TEMPO SHRA

More Conditions Fewer Conditions

10-Day Weather Forecast

Almanac

Astronomy

Sep. 15, 2014 Rise Set
Actual Time 7:54 AM CEST 8:23 PM CEST
Civil Twilight 7:27 AM CEST 8:50 PM CEST
Nautical Twilight 6:55 AM CEST 9:22 PM CEST
Astronomical Twilight 6:21 AM CEST 9:55 PM CEST
Moon 12:04 AM CEST 2:43 PM CEST
Length of Visible Light 13h 23m
Length of Day
12h 28m
Tomorrow will be 2m 39s shorter.
Waning Gibbous, 60% of the Moon is Illuminated
Sep 14
Waning Gibbous
Sep 15
Last Quarter
Sep 24
New
Oct 1
First Quarter
Oct 8
Full

Yesterday's Extremes

Country Highs Country Lows

Community

WunderPhotos

Upload Photos

1,753,371 photos uploaded!

Nearby

Snow Depth

Not available.

Earthquake Activity

City Distance Mag. Time & Date
No recent earthquake activity has been reported nearby.
Minimum magnitude displayed is 2.5.

Coastal Water Temperatures

Place Temperature
No Stations Reporting

Nearby Weather Stations